Lake View, South Carolina
Current Conditions -  °F | °C
As of 7:15 AM on Friday 21 Nov 2014 (Local Time) from KMAO Reporting Station
Clear Clear  
Wind Chill: 36°   Ceiling: Unl
Heat Index: 36°   Visibility: 10mi
Dew Point: 32°   Wind: 0mph
Humidity: 87%   Direction: NA
Pressure: 30.32"   Gusts: NA
Location:  34.35°N, 79.17°W
Report Text: KMAO 211215Z AUTO 00000KT 10SM CLR 02/00 A3032 RMK AO2
Loading
Personal Weather Stations






























Interactive Weather Map New forecast layout! Learn more

10-Day Weather Forecast

Advertisements
Track Severe Weather on mobile